Allensville, Kentucky
Current Conditions -  °F | °C
As of 7:35 PM on Saturday 20 Dec 2014 (Local Time) from KM91 Reporting Station
Clear Clear  
Wind Chill: 34°   Ceiling: Unl
Heat Index: 34°   Visibility: 10mi
Dew Point: 28°   Wind: 3mph
Humidity: 81%   Direction: 30°NNE
Pressure: 30.26"   Gusts: NA
Location:  36.72°N, 87.07°W
Report Text: KM91 210135Z AUTO 03003KT 10SM CLR 01/M02 A3026 RMK
Loading
Personal Weather Stations






























Interactive Weather Map New forecast layout! Learn more

10-Day Weather Forecast

Advertisements
Track Severe Weather on mobile